sensor_id;sensor_type;location;lat;lon;timestamp;pressure;altitude;pressure_sealevel;temperature;humidity
17450;BME280;8842;51.244;7.102;2022-07-22T00:06:29;99923.48;;;17.03;100.00
17450;BME280;8842;51.244;7.102;2022-07-22T00:16:48;99915.86;;;16.98;100.00
17450;BME280;8842;51.244;7.102;2022-07-22T00:27:05;99921.88;;;16.87;100.00
17450;BME280;8842;51.244;7.102;2022-07-22T00:37:23;99915.84;;;16.85;100.00
17450;BME280;8842;51.244;7.102;2022-07-22T00:47:42;99923.56;;;16.74;100.00
17450;BME280;8842;51.244;7.102;2022-07-22T00:58:00;99917.86;;;16.73;100.00
17450;BME280;8842;51.244;7.102;2022-07-22T01:08:17;99910.78;;;16.72;100.00
17450;BME280;8842;51.244;7.102;2022-07-22T01:18:35;99905.37;;;16.68;100.00
17450;BME280;8842;51.244;7.102;2022-07-22T01:28:51;99909.87;;;16.68;100.00
17450;BME280;8842;51.244;7.102;2022-07-22T01:39:10;99903.83;;;16.66;100.00
17450;BME280;8842;51.244;7.102;2022-07-22T01:49:28;99906.66;;;16.64;100.00
17450;BME280;8842;51.244;7.102;2022-07-22T01:59:45;99901.87;;;16.58;100.00
17450;BME280;8842;51.244;7.102;2022-07-22T02:10:06;99906.10;;;16.51;100.00
17450;BME280;8842;51.244;7.102;2022-07-22T02:20:29;99909.30;;;16.51;100.00
17450;BME280;8842;51.244;7.102;2022-07-22T02:35:56;99894.55;;;16.51;100.00
17450;BME280;8842;51.244;7.102;2022-07-22T02:46:14;99893.69;;;16.50;100.00
17450;BME280;8842;51.244;7.102;2022-07-22T02:51:18;99887.28;;;16.47;100.00
17450;BME280;8842;51.244;7.102;2022-07-22T03:01:35;99885.36;;;16.53;100.00
17450;BME280;8842;51.244;7.102;2022-07-22T03:11:53;99898.42;;;16.52;100.00
17450;BME280;8842;51.244;7.102;2022-07-22T03:22:08;99907.44;;;16.51;100.00
17450;BME280;8842;51.244;7.102;2022-07-22T03:32:26;99908.67;;;16.43;100.00
17450;BME280;8842;51.244;7.102;2022-07-22T03:42:42;99902.17;;;16.36;100.00
17450;BME280;8842;51.244;7.102;2022-07-22T03:52:58;99900.88;;;16.40;100.00
17450;BME280;8842;51.244;7.102;2022-07-22T04:03:16;99908.22;;;16.38;100.00
17450;BME280;8842;51.244;7.102;2022-07-22T04:13:36;99904.85;;;16.36;100.00
17450;BME280;8842;51.244;7.102;2022-07-22T04:18:40;99912.47;;;16.31;100.00
17450;BME280;8842;51.244;7.102;2022-07-22T04:28:59;99900.03;;;16.40;100.00
17450;BME280;8842;51.244;7.102;2022-07-22T04:39:18;99888.77;;;16.27;100.00
17450;BME280;8842;51.244;7.102;2022-07-22T04:49:36;99877.70;;;16.16;100.00
17450;BME280;8842;51.244;7.102;2022-07-22T04:59:52;99898.31;;;16.06;100.00
17450;BME280;8842;51.244;7.102;2022-07-22T05:10:10;99899.29;;;16.15;100.00
17450;BME280;8842;51.244;7.102;2022-07-22T05:15:14;99903.79;;;16.14;100.00
17450;BME280;8842;51.244;7.102;2022-07-22T05:25:29;99919.02;;;16.23;100.00
17450;BME280;8842;51.244;7.102;2022-07-22T05:30:34;99920.02;;;16.22;100.00
17450;BME280;8842;51.244;7.102;2022-07-22T05:35:38;99919.30;;;16.20;100.00
17450;BME280;8842;51.244;7.102;2022-07-22T05:45:53;99918.45;;;16.29;100.00
17450;BME280;8842;51.244;7.102;2022-07-22T05:50:58;99925.02;;;16.31;100.00
17450;BME280;8842;51.244;7.102;2022-07-22T06:01:14;99917.40;;;16.26;100.00
17450;BME280;8842;51.244;7.102;2022-07-22T06:11:29;99904.22;;;16.19;100.00
17450;BME280;8842;51.244;7.102;2022-07-22T06:21:47;99893.53;;;16.10;100.00
17450;BME280;8842;51.244;7.102;2022-07-22T06:32:03;99903.89;;;15.99;100.00
17450;BME280;8842;51.244;7.102;2022-07-22T06:42:18;99916.91;;;16.17;100.00
17450;BME280;8842;51.244;7.102;2022-07-22T06:47:23;99921.80;;;16.27;100.00
17450;BME280;8842;51.244;7.102;2022-07-22T06:57:38;99913.75;;;16.46;100.00
17450;BME280;8842;51.244;7.102;2022-07-22T07:07:54;99905.32;;;16.64;100.00
17450;BME280;8842;51.244;7.102;2022-07-22T07:12:59;99901.63;;;16.65;100.00
17450;BME280;8842;51.244;7.102;2022-07-22T07:18:04;99901.83;;;16.68;100.00
17450;BME280;8842;51.244;7.102;2022-07-22T07:28:19;99895.98;;;16.68;100.00
17450;BME280;8842;51.244;7.102;2022-07-22T07:43:47;99903.45;;;16.74;100.00
17450;BME280;8842;51.244;7.102;2022-07-22T07:54:03;99903.22;;;16.58;100.00
17450;BME280;8842;51.244;7.102;2022-07-22T07:59:07;99903.01;;;16.79;100.00
17450;BME280;8842;51.244;7.102;2022-07-22T08:14:34;99887.77;;;16.79;100.00
17450;BME280;8842;51.244;7.102;2022-07-22T08:24:50;99886.03;;;16.88;100.00
17450;BME280;8842;51.244;7.102;2022-07-22T08:35:07;99890.02;;;17.11;100.00
17450;BME280;8842;51.244;7.102;2022-07-22T08:50:34;99887.59;;;17.31;100.00
17450;BME280;8842;51.244;7.102;2022-07-22T09:01:05;99903.05;;;17.60;100.00
17450;BME280;8842;51.244;7.102;2022-07-22T09:11:22;99911.00;;;17.65;100.00
17450;BME280;8842;51.244;7.102;2022-07-22T09:21:52;99907.92;;;17.74;100.00
17450;BME280;8842;51.244;7.102;2022-07-22T09:32:08;99896.02;;;17.76;100.00
17450;BME280;8842;51.244;7.102;2022-07-22T09:42:24;99891.38;;;17.82;100.00
17450;BME280;8842;51.244;7.102;2022-07-22T09:52:40;99911.89;;;17.70;100.00
17450;BME280;8842;51.244;7.102;2022-07-22T10:03:05;99910.95;;;17.93;100.00
17450;BME280;8842;51.244;7.102;2022-07-22T10:13:25;99907.79;;;18.15;100.00
17450;BME280;8842;51.244;7.102;2022-07-22T10:24:08;99888.45;;;18.33;100.00
17450;BME280;8842;51.244;7.102;2022-07-22T10:29:28;99885.17;;;18.39;100.00
17450;BME280;8842;51.244;7.102;2022-07-22T10:34:33;99880.20;;;18.48;100.00
17450;BME280;8842;51.244;7.102;2022-07-22T10:44:58;99866.13;;;18.87;100.00
17450;BME280;8842;51.244;7.102;2022-07-22T11:06:41;99857.63;;;19.00;100.00
17450;BME280;8842;51.244;7.102;2022-07-22T11:16:57;99862.51;;;19.38;100.00
17450;BME280;8842;51.244;7.102;2022-07-22T11:32:26;99861.61;;;19.79;100.00
17450;BME280;8842;51.244;7.102;2022-07-22T11:47:56;99846.14;;;20.29;100.00
17450;BME280;8842;51.244;7.102;2022-07-22T11:58:13;99835.66;;;20.42;100.00
17450;BME280;8842;51.244;7.102;2022-07-22T12:08:30;99829.80;;;20.89;97.19
17450;BME280;8842;51.244;7.102;2022-07-22T12:18:52;99810.86;;;21.09;94.74
17450;BME280;8842;51.244;7.102;2022-07-22T12:34:37;99796.67;;;21.07;100.00
17450;BME280;8842;51.244;7.102;2022-07-22T12:44:58;99793.84;;;21.31;91.87
17450;BME280;8842;51.244;7.102;2022-07-22T12:55:28;99782.57;;;21.50;87.14
17450;BME280;8842;51.244;7.102;2022-07-22T13:05:43;99770.98;;;21.42;84.42
17450;BME280;8842;51.244;7.102;2022-07-22T13:16:00;99762.16;;;21.17;84.98
17450;BME280;8842;51.244;7.102;2022-07-22T13:21:04;99758.17;;;21.05;90.03
17450;BME280;8842;51.244;7.102;2022-07-22T13:31:19;99759.44;;;20.87;88.43
17450;BME280;8842;51.244;7.102;2022-07-22T13:41:34;99757.18;;;21.06;87.92
17450;BME280;8842;51.244;7.102;2022-07-22T13:51:57;99747.38;;;21.32;82.83
17450;BME280;8842;51.244;7.102;2022-07-22T14:02:13;99747.48;;;21.65;85.44
17450;BME280;8842;51.244;7.102;2022-07-22T14:12:28;99725.63;;;21.93;84.49
17450;BME280;8842;51.244;7.102;2022-07-22T14:22:43;99719.33;;;21.10;84.28
17450;BME280;8842;51.244;7.102;2022-07-22T14:32:59;99717.86;;;21.26;84.92
17450;BME280;8842;51.244;7.102;2022-07-22T14:43:15;99722.73;;;21.53;86.74
17450;BME280;8842;51.244;7.102;2022-07-22T14:53:31;99727.50;;;21.74;82.68
17450;BME280;8842;51.244;7.102;2022-07-22T15:03:46;99710.59;;;21.76;81.96
17450;BME280;8842;51.244;7.102;2022-07-22T15:14:02;99718.68;;;21.95;83.81
17450;BME280;8842;51.244;7.102;2022-07-22T15:19:06;99722.42;;;21.94;85.67
17450;BME280;8842;51.244;7.102;2022-07-22T15:29:21;99690.20;;;22.03;80.39
17450;BME280;8842;51.244;7.102;2022-07-22T15:39:37;99695.14;;;22.14;80.96
17450;BME280;8842;51.244;7.102;2022-07-22T15:49:54;99683.37;;;22.25;78.95
17450;BME280;8842;51.244;7.102;2022-07-22T16:00:10;99666.17;;;22.18;80.05
17450;BME280;8842;51.244;7.102;2022-07-22T16:10:27;99643.73;;;22.14;78.79
17450;BME280;8842;51.244;7.102;2022-07-22T16:20:43;99636.60;;;22.02;79.63
17450;BME280;8842;51.244;7.102;2022-07-22T16:31:00;99621.48;;;22.08;79.04
17450;BME280;8842;51.244;7.102;2022-07-22T16:41:17;99612.75;;;21.54;79.23
17450;BME280;8842;51.244;7.102;2022-07-22T16:51:33;99609.63;;;21.42;85.62
17450;BME280;8842;51.244;7.102;2022-07-22T17:07:38;99623.25;;;21.30;84.42
17450;BME280;8842;51.244;7.102;2022-07-22T17:17:56;99633.16;;;21.19;83.07
17450;BME280;8842;51.244;7.102;2022-07-22T17:33:31;99623.61;;;21.27;84.33
17450;BME280;8842;51.244;7.102;2022-07-22T17:54:14;99621.77;;;21.05;82.22
17450;BME280;8842;51.244;7.102;2022-07-22T18:04:29;99607.67;;;20.95;83.96
17450;BME280;8842;51.244;7.102;2022-07-22T18:19:58;99599.13;;;20.84;84.33
17450;BME280;8842;51.244;7.102;2022-07-22T18:30:16;99591.92;;;20.76;87.65
17450;BME280;8842;51.244;7.102;2022-07-22T18:40:32;99605.84;;;20.61;89.40
17450;BME280;8842;51.244;7.102;2022-07-22T18:56:00;99584.77;;;20.30;88.95
17450;BME280;8842;51.244;7.102;2022-07-22T19:06:15;99590.55;;;20.23;88.64
17450;BME280;8842;51.244;7.102;2022-07-22T19:16:32;99583.67;;;20.09;87.98
17450;BME280;8842;51.244;7.102;2022-07-22T19:26:50;99578.27;;;20.05;90.12
17450;BME280;8842;51.244;7.102;2022-07-22T19:42:18;99569.91;;;19.92;92.57
17450;BME280;8842;51.244;7.102;2022-07-22T19:47:22;99574.86;;;19.76;93.66
17450;BME280;8842;51.244;7.102;2022-07-22T19:58:13;99588.69;;;19.73;93.93
17450;BME280;8842;51.244;7.102;2022-07-22T20:18:51;99579.11;;;19.62;95.70
17450;BME280;8842;51.244;7.102;2022-07-22T20:29:07;99581.98;;;19.45;97.35
17450;BME280;8842;51.244;7.102;2022-07-22T20:39:22;99581.66;;;19.52;96.76
17450;BME280;8842;51.244;7.102;2022-07-22T20:49:39;99582.13;;;19.55;96.86
17450;BME280;8842;51.244;7.102;2022-07-22T21:05:08;99576.80;;;19.35;98.31
17450;BME280;8842;51.244;7.102;2022-07-22T21:15:27;99572.94;;;19.30;98.81
17450;BME280;8842;51.244;7.102;2022-07-22T21:25:44;99566.84;;;19.16;99.84
17450;BME280;8842;51.244;7.102;2022-07-22T21:36:00;99582.52;;;19.16;99.79
17450;BME280;8842;51.244;7.102;2022-07-22T21:46:16;99594.45;;;19.10;100.00
17450;BME280;8842;51.244;7.102;2022-07-22T21:56:32;99605.91;;;19.24;99.61
17450;BME280;8842;51.244;7.102;2022-07-22T22:07:08;99593.77;;;19.04;100.00
17450;BME280;8842;51.244;7.102;2022-07-22T22:17:25;99607.73;;;18.99;100.00
17450;BME280;8842;51.244;7.102;2022-07-22T22:27:41;99617.68;;;19.03;100.00
17450;BME280;8842;51.244;7.102;2022-07-22T22:37:58;99610.77;;;18.92;100.00
17450;BME280;8842;51.244;7.102;2022-07-22T22:48:14;99631.12;;;18.91;100.00
17450;BME280;8842;51.244;7.102;2022-07-22T22:58:31;99685.29;;;18.92;100.00
17450;BME280;8842;51.244;7.102;2022-07-22T23:08:47;99680.53;;;18.74;100.00
17450;BME280;8842;51.244;7.102;2022-07-22T23:19:03;99669.02;;;18.44;100.00
17450;BME280;8842;51.244;7.102;2022-07-22T23:29:20;99668.58;;;17.97;100.00
17450;BME280;8842;51.244;7.102;2022-07-22T23:39:36;99673.61;;;17.66;100.00
17450;BME280;8842;51.244;7.102;2022-07-22T23:49:52;99628.59;;;17.25;100.00
